sensor_id;sensor_type;location;lat;lon;timestamp;P1;durP1;ratioP1;P2;durP2;ratioP2
24619;SDS011;12763;55.802;37.404;2022-12-29T00:02:20;6.18;;;1.98;;
24619;SDS011;12763;55.802;37.404;2022-12-29T00:04:45;3.13;;;1.92;;
24619;SDS011;12763;55.802;37.404;2022-12-29T00:07:11;4.57;;;2.33;;
24619;SDS011;12763;55.802;37.404;2022-12-29T00:09:37;8.75;;;1.77;;
24619;SDS011;12763;55.802;37.404;2022-12-29T00:12:03;12.82;;;1.90;;
24619;SDS011;12763;55.802;37.404;2022-12-29T00:14:30;6.45;;;1.85;;
24619;SDS011;12763;55.802;37.404;2022-12-29T00:17:14;2.87;;;1.53;;
24619;SDS011;12763;55.802;37.404;2022-12-29T00:19:40;6.90;;;2.45;;
24619;SDS011;12763;55.802;37.404;2022-12-29T00:22:24;3.10;;;1.60;;
24619;SDS011;12763;55.802;37.404;2022-12-29T00:25:10;3.53;;;1.80;;
24619;SDS011;12763;55.802;37.404;2022-12-29T00:27:55;6.97;;;2.10;;
24619;SDS011;12763;55.802;37.404;2022-12-29T00:30:39;6.78;;;1.65;;
24619;SDS011;12763;55.802;37.404;2022-12-29T00:33:31;3.42;;;1.50;;
24619;SDS011;12763;55.802;37.404;2022-12-29T00:38:58;4.22;;;1.55;;
24619;SDS011;12763;55.802;37.404;2022-12-29T00:41:45;4.00;;;1.55;;
24619;SDS011;12763;55.802;37.404;2022-12-29T00:46:56;4.30;;;1.92;;
24619;SDS011;12763;55.802;37.404;2022-12-29T00:49:22;6.05;;;1.50;;
24619;SDS011;12763;55.802;37.404;2022-12-29T00:51:58;4.15;;;1.45;;
24619;SDS011;12763;55.802;37.404;2022-12-29T00:54:24;4.22;;;1.50;;
24619;SDS011;12763;55.802;37.404;2022-12-29T00:56:50;5.60;;;1.65;;
24619;SDS011;12763;55.802;37.404;2022-12-29T00:59:17;6.70;;;1.88;;
24619;SDS011;12763;55.802;37.404;2022-12-29T01:01:44;3.08;;;1.42;;
24619;SDS011;12763;55.802;37.404;2022-12-29T01:04:11;10.20;;;1.50;;
24619;SDS011;12763;55.802;37.404;2022-12-29T01:06:38;4.82;;;1.60;;
24619;SDS011;12763;55.802;37.404;2022-12-29T01:09:07;6.50;;;1.60;;
24619;SDS011;12763;55.802;37.404;2022-12-29T01:11:52;3.53;;;1.48;;
24619;SDS011;12763;55.802;37.404;2022-12-29T01:14:18;5.85;;;1.45;;
24619;SDS011;12763;55.802;37.404;2022-12-29T01:16:44;5.43;;;1.70;;
24619;SDS011;12763;55.802;37.404;2022-12-29T01:19:11;2.95;;;1.52;;
24619;SDS011;12763;55.802;37.404;2022-12-29T01:21:37;5.50;;;2.35;;
24619;SDS011;12763;55.802;37.404;2022-12-29T01:24:03;4.35;;;1.67;;
24619;SDS011;12763;55.802;37.404;2022-12-29T01:26:29;3.53;;;1.55;;
24619;SDS011;12763;55.802;37.404;2022-12-29T01:28:55;2.65;;;1.42;;
24619;SDS011;12763;55.802;37.404;2022-12-29T01:31:21;8.70;;;1.73;;
24619;SDS011;12763;55.802;37.404;2022-12-29T01:33:47;8.52;;;1.90;;
24619;SDS011;12763;55.802;37.404;2022-12-29T01:36:14;8.98;;;2.15;;
24619;SDS011;12763;55.802;37.404;2022-12-29T01:38:42;6.05;;;1.63;;
24619;SDS011;12763;55.802;37.404;2022-12-29T01:41:09;10.15;;;2.10;;
24619;SDS011;12763;55.802;37.404;2022-12-29T01:51:35;8.32;;;1.60;;
24619;SDS011;12763;55.802;37.404;2022-12-29T01:54:09;5.15;;;1.80;;
24619;SDS011;12763;55.802;37.404;2022-12-29T01:56:47;3.85;;;1.60;;
24619;SDS011;12763;55.802;37.404;2022-12-29T01:59:15;6.10;;;1.75;;
24619;SDS011;12763;55.802;37.404;2022-12-29T02:01:45;5.53;;;2.33;;
24619;SDS011;12763;55.802;37.404;2022-12-29T02:04:11;12.52;;;2.28;;
24619;SDS011;12763;55.802;37.404;2022-12-29T02:06:43;11.35;;;2.30;;
24619;SDS011;12763;55.802;37.404;2022-12-29T02:09:23;8.25;;;2.28;;
24619;SDS011;12763;55.802;37.404;2022-12-29T02:11:50;6.82;;;2.50;;
24619;SDS011;12763;55.802;37.404;2022-12-29T02:14:17;13.50;;;1.90;;
24619;SDS011;12763;55.802;37.404;2022-12-29T02:44:54;5.70;;;2.28;;
24619;SDS011;12763;55.802;37.404;2022-12-29T02:47:41;8.20;;;1.75;;
24619;SDS011;12763;55.802;37.404;2022-12-29T02:50:27;10.02;;;2.80;;
24619;SDS011;12763;55.802;37.404;2022-12-29T02:52:58;4.60;;;2.13;;
24619;SDS011;12763;55.802;37.404;2022-12-29T02:55:26;3.90;;;1.80;;
24619;SDS011;12763;55.802;37.404;2022-12-29T03:04:24;7.15;;;1.90;;
24619;SDS011;12763;55.802;37.404;2022-12-29T03:15:23;5.43;;;1.90;;
24619;SDS011;12763;55.802;37.404;2022-12-29T03:18:21;8.10;;;1.98;;
24619;SDS011;12763;55.802;37.404;2022-12-29T03:20:57;8.50;;;1.70;;
24619;SDS011;12763;55.802;37.404;2022-12-29T03:23:30;9.93;;;2.40;;
24619;SDS011;12763;55.802;37.404;2022-12-29T03:25:58;5.07;;;2.05;;
24619;SDS011;12763;55.802;37.404;2022-12-29T03:28:30;7.63;;;2.05;;
24619;SDS011;12763;55.802;37.404;2022-12-29T03:31:01;6.55;;;2.00;;
24619;SDS011;12763;55.802;37.404;2022-12-29T03:33:30;12.90;;;2.08;;
24619;SDS011;12763;55.802;37.404;2022-12-29T03:36:05;8.82;;;2.08;;
24619;SDS011;12763;55.802;37.404;2022-12-29T03:41:16;10.05;;;2.20;;
24619;SDS011;12763;55.802;37.404;2022-12-29T03:43:46;5.43;;;2.30;;
24619;SDS011;12763;55.802;37.404;2022-12-29T03:46:11;7.85;;;1.88;;
24619;SDS011;12763;55.802;37.404;2022-12-29T03:48:40;2.20;;;1.40;;
24619;SDS011;12763;55.802;37.404;2022-12-29T03:51:08;7.15;;;1.80;;
24619;SDS011;12763;55.802;37.404;2022-12-29T03:53:34;8.27;;;1.85;;
24619;SDS011;12763;55.802;37.404;2022-12-29T03:56:01;5.25;;;1.58;;
24619;SDS011;12763;55.802;37.404;2022-12-29T03:58:28;7.28;;;1.70;;
24619;SDS011;12763;55.802;37.404;2022-12-29T04:01:19;5.32;;;1.70;;
24619;SDS011;12763;55.802;37.404;2022-12-29T04:03:45;6.57;;;2.22;;
24619;SDS011;12763;55.802;37.404;2022-12-29T04:06:11;8.52;;;2.00;;
24619;SDS011;12763;55.802;37.404;2022-12-29T04:08:46;7.57;;;2.13;;
24619;SDS011;12763;55.802;37.404;2022-12-29T04:11:12;4.40;;;2.15;;
24619;SDS011;12763;55.802;37.404;2022-12-29T04:13:39;6.25;;;2.13;;
24619;SDS011;12763;55.802;37.404;2022-12-29T04:16:07;10.07;;;2.50;;
24619;SDS011;12763;55.802;37.404;2022-12-29T04:18:35;10.93;;;2.53;;
24619;SDS011;12763;55.802;37.404;2022-12-29T04:21:00;7.18;;;2.03;;
24619;SDS011;12763;55.802;37.404;2022-12-29T04:23:33;3.03;;;2.05;;
24619;SDS011;12763;55.802;37.404;2022-12-29T04:26:03;5.83;;;1.93;;
24619;SDS011;12763;55.802;37.404;2022-12-29T04:28:29;9.15;;;3.28;;
24619;SDS011;12763;55.802;37.404;2022-12-29T04:31:25;9.85;;;2.00;;
24619;SDS011;12763;55.802;37.404;2022-12-29T04:33:50;3.88;;;1.90;;
24619;SDS011;12763;55.802;37.404;2022-12-29T04:36:16;9.25;;;2.42;;
24619;SDS011;12763;55.802;37.404;2022-12-29T04:38:42;7.50;;;1.88;;
24619;SDS011;12763;55.802;37.404;2022-12-29T04:41:10;6.78;;;2.70;;
24619;SDS011;12763;55.802;37.404;2022-12-29T04:43:38;9.23;;;2.72;;
24619;SDS011;12763;55.802;37.404;2022-12-29T04:46:06;6.82;;;2.67;;
24619;SDS011;12763;55.802;37.404;2022-12-29T04:49:01;7.40;;;2.70;;
24619;SDS011;12763;55.802;37.404;2022-12-29T04:51:51;13.60;;;2.60;;
24619;SDS011;12763;55.802;37.404;2022-12-29T04:54:18;10.00;;;3.10;;
24619;SDS011;12763;55.802;37.404;2022-12-29T04:56:49;11.27;;;3.03;;
24619;SDS011;12763;55.802;37.404;2022-12-29T04:59:16;9.98;;;2.88;;
24619;SDS011;12763;55.802;37.404;2022-12-29T05:01:45;7.72;;;2.85;;
24619;SDS011;12763;55.802;37.404;2022-12-29T05:04:11;6.50;;;2.53;;
24619;SDS011;12763;55.802;37.404;2022-12-29T05:06:37;14.98;;;3.53;;
24619;SDS011;12763;55.802;37.404;2022-12-29T05:09:03;12.10;;;2.65;;
24619;SDS011;12763;55.802;37.404;2022-12-29T05:11:28;17.13;;;3.30;;
24619;SDS011;12763;55.802;37.404;2022-12-29T05:13:56;6.63;;;3.08;;
24619;SDS011;12763;55.802;37.404;2022-12-29T05:16:22;10.85;;;2.80;;
24619;SDS011;12763;55.802;37.404;2022-12-29T05:18:48;14.57;;;3.50;;
24619;SDS011;12763;55.802;37.404;2022-12-29T05:21:14;8.88;;;2.65;;
24619;SDS011;12763;55.802;37.404;2022-12-29T05:23:41;9.45;;;2.53;;
24619;SDS011;12763;55.802;37.404;2022-12-29T05:26:07;9.30;;;2.83;;
24619;SDS011;12763;55.802;37.404;2022-12-29T05:29:05;5.15;;;2.25;;
24619;SDS011;12763;55.802;37.404;2022-12-29T05:31:31;13.43;;;2.75;;
24619;SDS011;12763;55.802;37.404;2022-12-29T05:33:58;5.68;;;2.90;;
24619;SDS011;12763;55.802;37.404;2022-12-29T05:36:26;7.55;;;2.38;;
24619;SDS011;12763;55.802;37.404;2022-12-29T05:38:56;4.40;;;2.65;;
24619;SDS011;12763;55.802;37.404;2022-12-29T05:41:22;8.85;;;2.40;;
24619;SDS011;12763;55.802;37.404;2022-12-29T05:44:07;8.82;;;1.77;;
24619;SDS011;12763;55.802;37.404;2022-12-29T05:46:45;11.40;;;4.28;;
24619;SDS011;12763;55.802;37.404;2022-12-29T05:49:17;6.32;;;2.03;;
24619;SDS011;12763;55.802;37.404;2022-12-29T05:52:16;15.10;;;3.33;;
24619;SDS011;12763;55.802;37.404;2022-12-29T05:54:42;9.85;;;2.75;;
24619;SDS011;12763;55.802;37.404;2022-12-29T05:57:11;8.20;;;2.88;;
24619;SDS011;12763;55.802;37.404;2022-12-29T05:59:38;10.88;;;2.30;;
24619;SDS011;12763;55.802;37.404;2022-12-29T06:02:04;10.77;;;3.00;;
24619;SDS011;12763;55.802;37.404;2022-12-29T06:04:30;7.80;;;3.40;;
24619;SDS011;12763;55.802;37.404;2022-12-29T06:06:56;12.07;;;2.30;;
24619;SDS011;12763;55.802;37.404;2022-12-29T06:09:33;10.55;;;2.70;;
24619;SDS011;12763;55.802;37.404;2022-12-29T06:12:00;8.13;;;2.50;;
24619;SDS011;12763;55.802;37.404;2022-12-29T06:14:26;12.85;;;3.17;;
24619;SDS011;12763;55.802;37.404;2022-12-29T06:16:52;15.43;;;3.50;;
24619;SDS011;12763;55.802;37.404;2022-12-29T06:19:18;10.82;;;3.47;;
24619;SDS011;12763;55.802;37.404;2022-12-29T06:21:43;10.65;;;3.75;;
24619;SDS011;12763;55.802;37.404;2022-12-29T06:24:09;13.57;;;5.00;;
24619;SDS011;12763;55.802;37.404;2022-12-29T06:26:36;17.73;;;4.53;;
24619;SDS011;12763;55.802;37.404;2022-12-29T06:29:02;7.55;;;3.50;;
24619;SDS011;12763;55.802;37.404;2022-12-29T06:31:28;19.15;;;4.97;;
24619;SDS011;12763;55.802;37.404;2022-12-29T06:33:54;10.00;;;3.70;;
24619;SDS011;12763;55.802;37.404;2022-12-29T06:36:20;11.18;;;4.28;;
24619;SDS011;12763;55.802;37.404;2022-12-29T06:38:46;6.15;;;3.20;;
24619;SDS011;12763;55.802;37.404;2022-12-29T06:41:11;11.00;;;3.75;;
24619;SDS011;12763;55.802;37.404;2022-12-29T06:43:57;13.73;;;3.97;;
24619;SDS011;12763;55.802;37.404;2022-12-29T06:46:35;16.08;;;4.00;;
24619;SDS011;12763;55.802;37.404;2022-12-29T06:49:01;7.65;;;3.47;;
24619;SDS011;12763;55.802;37.404;2022-12-29T06:51:27;10.57;;;4.25;;
24619;SDS011;12763;55.802;37.404;2022-12-29T06:53:53;14.63;;;4.00;;
24619;SDS011;12763;55.802;37.404;2022-12-29T06:56:19;7.65;;;3.17;;
24619;SDS011;12763;55.802;37.404;2022-12-29T06:58:44;7.10;;;3.15;;
24619;SDS011;12763;55.802;37.404;2022-12-29T07:01:10;18.08;;;4.18;;
24619;SDS011;12763;55.802;37.404;2022-12-29T07:03:36;14.55;;;4.07;;
24619;SDS011;12763;55.802;37.404;2022-12-29T07:06:02;10.65;;;3.55;;
24619;SDS011;12763;55.802;37.404;2022-12-29T07:08:28;9.20;;;2.63;;
24619;SDS011;12763;55.802;37.404;2022-12-29T07:10:54;13.93;;;3.05;;
24619;SDS011;12763;55.802;37.404;2022-12-29T07:13:20;8.45;;;2.47;;
24619;SDS011;12763;55.802;37.404;2022-12-29T07:15:46;4.80;;;2.30;;
24619;SDS011;12763;55.802;37.404;2022-12-29T07:18:11;9.20;;;2.72;;
24619;SDS011;12763;55.802;37.404;2022-12-29T07:20:37;5.15;;;2.67;;
24619;SDS011;12763;55.802;37.404;2022-12-29T07:23:03;5.75;;;3.20;;
24619;SDS011;12763;55.802;37.404;2022-12-29T07:25:29;6.35;;;2.08;;
24619;SDS011;12763;55.802;37.404;2022-12-29T07:27:55;6.47;;;2.65;;
24619;SDS011;12763;55.802;37.404;2022-12-29T07:30:20;6.75;;;3.03;;
24619;SDS011;12763;55.802;37.404;2022-12-29T07:32:46;7.18;;;2.58;;
24619;SDS011;12763;55.802;37.404;2022-12-29T07:35:12;10.30;;;3.10;;
24619;SDS011;12763;55.802;37.404;2022-12-29T07:37:38;6.82;;;2.80;;
24619;SDS011;12763;55.802;37.404;2022-12-29T07:40:03;6.72;;;2.80;;
24619;SDS011;12763;55.802;37.404;2022-12-29T07:42:30;9.98;;;2.90;;
24619;SDS011;12763;55.802;37.404;2022-12-29T07:44:58;9.93;;;2.72;;
24619;SDS011;12763;55.802;37.404;2022-12-29T07:47:29;6.30;;;2.53;;
24619;SDS011;12763;55.802;37.404;2022-12-29T07:49:54;9.80;;;3.20;;
24619;SDS011;12763;55.802;37.404;2022-12-29T07:52:20;11.18;;;3.22;;
24619;SDS011;12763;55.802;37.404;2022-12-29T07:54:46;9.55;;;3.70;;
24619;SDS011;12763;55.802;37.404;2022-12-29T07:57:12;5.55;;;2.83;;
24619;SDS011;12763;55.802;37.404;2022-12-29T07:59:38;10.02;;;3.40;;
24619;SDS011;12763;55.802;37.404;2022-12-29T08:02:04;17.58;;;3.60;;
24619;SDS011;12763;55.802;37.404;2022-12-29T08:04:29;4.80;;;2.45;;
24619;SDS011;12763;55.802;37.404;2022-12-29T08:06:55;7.25;;;2.97;;
24619;SDS011;12763;55.802;37.404;2022-12-29T08:09:21;5.88;;;2.72;;
24619;SDS011;12763;55.802;37.404;2022-12-29T08:11:46;14.30;;;3.13;;
24619;SDS011;12763;55.802;37.404;2022-12-29T08:14:12;7.35;;;3.00;;
24619;SDS011;12763;55.802;37.404;2022-12-29T08:16:38;11.00;;;3.33;;
24619;SDS011;12763;55.802;37.404;2022-12-29T08:19:04;8.40;;;3.20;;
24619;SDS011;12763;55.802;37.404;2022-12-29T08:21:30;7.63;;;2.83;;
24619;SDS011;12763;55.802;37.404;2022-12-29T08:23:56;12.98;;;3.38;;
24619;SDS011;12763;55.802;37.404;2022-12-29T08:26:22;5.40;;;3.22;;
24619;SDS011;12763;55.802;37.404;2022-12-29T08:28:47;10.43;;;3.03;;
24619;SDS011;12763;55.802;37.404;2022-12-29T08:31:13;9.20;;;3.50;;
24619;SDS011;12763;55.802;37.404;2022-12-29T08:33:39;12.18;;;3.15;;
24619;SDS011;12763;55.802;37.404;2022-12-29T08:36:05;10.82;;;3.28;;
24619;SDS011;12763;55.802;37.404;2022-12-29T08:38:32;12.75;;;3.45;;
24619;SDS011;12763;55.802;37.404;2022-12-29T08:40:58;8.35;;;2.97;;
24619;SDS011;12763;55.802;37.404;2022-12-29T08:43:26;6.40;;;2.63;;
24619;SDS011;12763;55.802;37.404;2022-12-29T08:45:53;10.25;;;3.22;;
24619;SDS011;12763;55.802;37.404;2022-12-29T08:48:19;5.85;;;2.72;;
24619;SDS011;12763;55.802;37.404;2022-12-29T08:50:47;8.27;;;2.92;;
24619;SDS011;12763;55.802;37.404;2022-12-29T08:53:15;7.78;;;3.25;;
24619;SDS011;12763;55.802;37.404;2022-12-29T08:55:41;14.35;;;3.05;;
24619;SDS011;12763;55.802;37.404;2022-12-29T08:58:06;6.50;;;2.97;;
24619;SDS011;12763;55.802;37.404;2022-12-29T09:00:34;10.63;;;2.83;;
24619;SDS011;12763;55.802;37.404;2022-12-29T09:03:01;7.63;;;3.70;;
24619;SDS011;12763;55.802;37.404;2022-12-29T09:05:27;4.82;;;3.28;;
24619;SDS011;12763;55.802;37.404;2022-12-29T09:07:53;9.55;;;4.10;;
24619;SDS011;12763;55.802;37.404;2022-12-29T09:10:18;8.10;;;3.85;;
24619;SDS011;12763;55.802;37.404;2022-12-29T09:12:44;8.30;;;4.10;;
24619;SDS011;12763;55.802;37.404;2022-12-29T09:15:10;8.02;;;3.75;;
24619;SDS011;12763;55.802;37.404;2022-12-29T09:17:37;9.85;;;4.70;;
24619;SDS011;12763;55.802;37.404;2022-12-29T09:20:13;15.10;;;4.82;;
24619;SDS011;12763;55.802;37.404;2022-12-29T09:22:40;11.65;;;6.15;;
24619;SDS011;12763;55.802;37.404;2022-12-29T09:25:07;12.60;;;4.97;;
24619;SDS011;12763;55.802;37.404;2022-12-29T09:27:34;14.32;;;5.78;;
24619;SDS011;12763;55.802;37.404;2022-12-29T09:30:01;17.65;;;5.78;;
24619;SDS011;12763;55.802;37.404;2022-12-29T09:32:29;16.75;;;6.15;;
24619;SDS011;12763;55.802;37.404;2022-12-29T09:34:55;17.23;;;6.45;;
24619;SDS011;12763;55.802;37.404;2022-12-29T09:37:21;13.50;;;6.30;;
24619;SDS011;12763;55.802;37.404;2022-12-29T09:39:46;13.32;;;6.05;;
24619;SDS011;12763;55.802;37.404;2022-12-29T09:42:23;19.25;;;6.70;;
24619;SDS011;12763;55.802;37.404;2022-12-29T09:45:24;21.38;;;5.97;;
24619;SDS011;12763;55.802;37.404;2022-12-29T09:48:00;18.05;;;5.72;;
24619;SDS011;12763;55.802;37.404;2022-12-29T09:50:30;12.90;;;6.22;;
24619;SDS011;12763;55.802;37.404;2022-12-29T09:53:18;20.73;;;5.88;;
24619;SDS011;12763;55.802;37.404;2022-12-29T09:55:53;14.05;;;6.43;;
24619;SDS011;12763;55.802;37.404;2022-12-29T09:58:28;11.20;;;5.65;;
24619;SDS011;12763;55.802;37.404;2022-12-29T10:03:32;26.85;;;5.72;;
24619;SDS011;12763;55.802;37.404;2022-12-29T10:06:19;11.35;;;5.25;;
24619;SDS011;12763;55.802;37.404;2022-12-29T10:22:51;11.70;;;5.57;;
24619;SDS011;12763;55.802;37.404;2022-12-29T10:25:24;17.58;;;5.15;;
24619;SDS011;12763;55.802;37.404;2022-12-29T10:27:52;11.18;;;4.95;;
24619;SDS011;12763;55.802;37.404;2022-12-29T10:30:22;12.10;;;4.63;;
24619;SDS011;12763;55.802;37.404;2022-12-29T10:32:49;11.32;;;4.40;;
24619;SDS011;12763;55.802;37.404;2022-12-29T10:35:20;16.40;;;4.88;;
24619;SDS011;12763;55.802;37.404;2022-12-29T10:42:54;13.65;;;4.43;;
24619;SDS011;12763;55.802;37.404;2022-12-29T10:45:26;12.48;;;4.35;;
24619;SDS011;12763;55.802;37.404;2022-12-29T10:48:08;18.40;;;5.75;;
24619;SDS011;12763;55.802;37.404;2022-12-29T10:50:38;15.18;;;5.60;;
24619;SDS011;12763;55.802;37.404;2022-12-29T10:53:08;11.35;;;5.97;;
24619;SDS011;12763;55.802;37.404;2022-12-29T10:55:41;14.18;;;6.13;;
24619;SDS011;12763;55.802;37.404;2022-12-29T10:58:09;11.68;;;6.03;;
24619;SDS011;12763;55.802;37.404;2022-12-29T11:00:38;16.17;;;7.07;;
24619;SDS011;12763;55.802;37.404;2022-12-29T11:08:46;17.55;;;7.38;;
24619;SDS011;12763;55.802;37.404;2022-12-29T11:11:22;20.23;;;6.80;;
24619;SDS011;12763;55.802;37.404;2022-12-29T11:13:55;13.23;;;6.72;;
24619;SDS011;12763;55.802;37.404;2022-12-29T11:16:29;10.70;;;5.50;;
24619;SDS011;12763;55.802;37.404;2022-12-29T11:19:00;18.88;;;6.18;;
24619;SDS011;12763;55.802;37.404;2022-12-29T11:21:34;14.10;;;6.18;;
24619;SDS011;12763;55.802;37.404;2022-12-29T11:24:14;14.70;;;5.95;;
24619;SDS011;12763;55.802;37.404;2022-12-29T11:26:51;11.25;;;5.85;;
24619;SDS011;12763;55.802;37.404;2022-12-29T11:31:54;15.38;;;5.35;;
24619;SDS011;12763;55.802;37.404;2022-12-29T11:34:26;16.80;;;5.05;;
24619;SDS011;12763;55.802;37.404;2022-12-29T11:37:19;12.93;;;5.53;;
24619;SDS011;12763;55.802;37.404;2022-12-29T11:39:54;9.15;;;4.82;;
24619;SDS011;12763;55.802;37.404;2022-12-29T11:45:22;13.50;;;5.78;;
24619;SDS011;12763;55.802;37.404;2022-12-29T11:48:24;14.63;;;6.00;;
24619;SDS011;12763;55.802;37.404;2022-12-29T11:50:48;13.07;;;6.45;;
24619;SDS011;12763;55.802;37.404;2022-12-29T11:53:21;14.25;;;6.25;;
24619;SDS011;12763;55.802;37.404;2022-12-29T11:56:00;28.67;;;9.45;;
24619;SDS011;12763;55.802;37.404;2022-12-29T11:58:33;14.60;;;6.53;;
24619;SDS011;12763;55.802;37.404;2022-12-29T12:03:55;14.32;;;6.47;;
24619;SDS011;12763;55.802;37.404;2022-12-29T12:06:22;16.35;;;7.93;;
24619;SDS011;12763;55.802;37.404;2022-12-29T12:11:41;15.27;;;7.25;;
24619;SDS011;12763;55.802;37.404;2022-12-29T12:14:46;19.80;;;7.72;;
24619;SDS011;12763;55.802;37.404;2022-12-29T12:17:51;18.60;;;7.22;;
24619;SDS011;12763;55.802;37.404;2022-12-29T12:20:48;14.18;;;6.30;;
24619;SDS011;12763;55.802;37.404;2022-12-29T12:26:10;14.30;;;6.45;;
24619;SDS011;12763;55.802;37.404;2022-12-29T12:33:57;18.92;;;7.15;;
24619;SDS011;12763;55.802;37.404;2022-12-29T12:44:51;27.45;;;9.52;;
24619;SDS011;12763;55.802;37.404;2022-12-29T12:47:24;23.17;;;8.20;;
24619;SDS011;12763;55.802;37.404;2022-12-29T13:00:22;15.38;;;7.70;;
24619;SDS011;12763;55.802;37.404;2022-12-29T13:15:48;17.33;;;6.85;;
24619;SDS011;12763;55.802;37.404;2022-12-29T13:21:34;20.83;;;7.88;;
24619;SDS011;12763;55.802;37.404;2022-12-29T13:24:25;17.40;;;7.95;;
24619;SDS011;12763;55.802;37.404;2022-12-29T13:37:35;18.60;;;8.65;;
24619;SDS011;12763;55.802;37.404;2022-12-29T13:40:12;17.17;;;8.18;;
24619;SDS011;12763;55.802;37.404;2022-12-29T13:42:42;25.60;;;9.13;;
24619;SDS011;12763;55.802;37.404;2022-12-29T13:45:15;23.10;;;8.82;;
24619;SDS011;12763;55.802;37.404;2022-12-29T13:47:44;26.33;;;10.40;;
24619;SDS011;12763;55.802;37.404;2022-12-29T13:50:17;25.90;;;8.73;;
24619;SDS011;12763;55.802;37.404;2022-12-29T14:04:02;16.83;;;8.10;;
24619;SDS011;12763;55.802;37.404;2022-12-29T14:12:20;18.10;;;8.55;;
24619;SDS011;12763;55.802;37.404;2022-12-29T14:15:04;24.23;;;10.00;;
24619;SDS011;12763;55.802;37.404;2022-12-29T14:28:35;25.27;;;9.25;;
24619;SDS011;12763;55.802;37.404;2022-12-29T14:33:34;23.23;;;9.32;;
24619;SDS011;12763;55.802;37.404;2022-12-29T14:38:47;21.50;;;8.43;;
24619;SDS011;12763;55.802;37.404;2022-12-29T14:44:16;27.27;;;10.05;;
24619;SDS011;12763;55.802;37.404;2022-12-29T14:49:23;30.42;;;9.70;;
24619;SDS011;12763;55.802;37.404;2022-12-29T14:51:54;20.75;;;9.32;;
24619;SDS011;12763;55.802;37.404;2022-12-29T14:54:34;26.77;;;9.63;;
24619;SDS011;12763;55.802;37.404;2022-12-29T14:57:10;22.50;;;9.05;;
24619;SDS011;12763;55.802;37.404;2022-12-29T14:59:45;25.38;;;9.95;;
24619;SDS011;12763;55.802;37.404;2022-12-29T15:02:22;21.50;;;8.30;;
24619;SDS011;12763;55.802;37.404;2022-12-29T15:04:50;23.35;;;8.73;;
24619;SDS011;12763;55.802;37.404;2022-12-29T15:07:18;29.17;;;10.50;;
24619;SDS011;12763;55.802;37.404;2022-12-29T15:09:46;23.02;;;8.70;;
24619;SDS011;12763;55.802;37.404;2022-12-29T15:14:52;23.13;;;9.05;;
24619;SDS011;12763;55.802;37.404;2022-12-29T15:19:56;23.70;;;10.02;;
24619;SDS011;12763;55.802;37.404;2022-12-29T15:22:23;26.10;;;9.30;;
24619;SDS011;12763;55.802;37.404;2022-12-29T15:24:51;22.63;;;9.65;;
24619;SDS011;12763;55.802;37.404;2022-12-29T15:27:21;22.52;;;9.63;;
24619;SDS011;12763;55.802;37.404;2022-12-29T15:29:57;23.02;;;8.15;;
24619;SDS011;12763;55.802;37.404;2022-12-29T15:32:44;26.48;;;9.07;;
24619;SDS011;12763;55.802;37.404;2022-12-29T15:38:16;25.63;;;9.63;;
24619;SDS011;12763;55.802;37.404;2022-12-29T15:46:01;25.60;;;8.85;;
24619;SDS011;12763;55.802;37.404;2022-12-29T15:48:27;30.67;;;10.32;;
24619;SDS011;12763;55.802;37.404;2022-12-29T15:50:54;26.77;;;9.88;;
24619;SDS011;12763;55.802;37.404;2022-12-29T15:56:06;29.98;;;10.88;;
24619;SDS011;12763;55.802;37.404;2022-12-29T15:58:42;34.72;;;10.68;;
24619;SDS011;12763;55.802;37.404;2022-12-29T16:03:43;27.05;;;9.65;;
24619;SDS011;12763;55.802;37.404;2022-12-29T16:06:25;35.33;;;11.57;;
24619;SDS011;12763;55.802;37.404;2022-12-29T16:08:57;28.23;;;9.95;;
24619;SDS011;12763;55.802;37.404;2022-12-29T16:11:38;29.20;;;9.77;;
24619;SDS011;12763;55.802;37.404;2022-12-29T16:14:18;34.35;;;11.18;;
24619;SDS011;12763;55.802;37.404;2022-12-29T16:16:53;26.20;;;11.05;;
24619;SDS011;12763;55.802;37.404;2022-12-29T16:19:28;29.95;;;11.32;;
24619;SDS011;12763;55.802;37.404;2022-12-29T16:22:01;22.52;;;10.30;;
24619;SDS011;12763;55.802;37.404;2022-12-29T16:24:30;32.72;;;10.50;;
24619;SDS011;12763;55.802;37.404;2022-12-29T16:29:55;28.27;;;11.20;;
24619;SDS011;12763;55.802;37.404;2022-12-29T16:32:25;36.65;;;12.82;;
24619;SDS011;12763;55.802;37.404;2022-12-29T16:37:39;31.52;;;12.57;;
24619;SDS011;12763;55.802;37.404;2022-12-29T16:50:33;39.42;;;10.73;;
24619;SDS011;12763;55.802;37.404;2022-12-29T16:53:00;27.95;;;11.88;;
24619;SDS011;12763;55.802;37.404;2022-12-29T16:55:28;36.10;;;12.80;;
24619;SDS011;12763;55.802;37.404;2022-12-29T16:57:55;31.55;;;12.93;;
24619;SDS011;12763;55.802;37.404;2022-12-29T17:00:26;39.65;;;13.07;;
24619;SDS011;12763;55.802;37.404;2022-12-29T17:02:55;32.97;;;11.85;;
24619;SDS011;12763;55.802;37.404;2022-12-29T17:05:24;30.13;;;11.30;;
24619;SDS011;12763;55.802;37.404;2022-12-29T17:07:49;32.67;;;11.68;;
24619;SDS011;12763;55.802;37.404;2022-12-29T17:10:20;37.20;;;12.30;;
24619;SDS011;12763;55.802;37.404;2022-12-29T17:12:47;34.10;;;12.32;;
24619;SDS011;12763;55.802;37.404;2022-12-29T17:15:26;28.85;;;12.75;;
24619;SDS011;12763;55.802;37.404;2022-12-29T17:17:59;34.40;;;12.52;;
24619;SDS011;12763;55.802;37.404;2022-12-29T17:20:26;36.63;;;11.90;;
24619;SDS011;12763;55.802;37.404;2022-12-29T17:22:54;33.92;;;13.20;;
24619;SDS011;12763;55.802;37.404;2022-12-29T17:25:20;34.72;;;13.77;;
24619;SDS011;12763;55.802;37.404;2022-12-29T17:27:58;40.35;;;14.20;;
24619;SDS011;12763;55.802;37.404;2022-12-29T17:30:26;39.30;;;12.85;;
24619;SDS011;12763;55.802;37.404;2022-12-29T17:32:55;47.20;;;16.58;;
24619;SDS011;12763;55.802;37.404;2022-12-29T17:35:25;36.40;;;13.75;;
24619;SDS011;12763;55.802;37.404;2022-12-29T17:37:52;44.63;;;15.05;;
24619;SDS011;12763;55.802;37.404;2022-12-29T17:40:19;42.60;;;12.95;;
24619;SDS011;12763;55.802;37.404;2022-12-29T17:42:54;37.38;;;14.65;;
24619;SDS011;12763;55.802;37.404;2022-12-29T17:45:22;45.53;;;15.70;;
24619;SDS011;12763;55.802;37.404;2022-12-29T17:47:49;49.08;;;13.40;;
24619;SDS011;12763;55.802;37.404;2022-12-29T17:50:18;52.95;;;15.52;;
24619;SDS011;12763;55.802;37.404;2022-12-29T17:52:47;45.08;;;16.08;;
24619;SDS011;12763;55.802;37.404;2022-12-29T17:55:17;44.80;;;15.32;;
24619;SDS011;12763;55.802;37.404;2022-12-29T17:57:44;47.53;;;15.73;;
24619;SDS011;12763;55.802;37.404;2022-12-29T18:00:23;45.55;;;16.92;;
24619;SDS011;12763;55.802;37.404;2022-12-29T18:02:55;45.38;;;15.55;;
24619;SDS011;12763;55.802;37.404;2022-12-29T18:05:28;57.13;;;16.98;;
24619;SDS011;12763;55.802;37.404;2022-12-29T18:07:56;53.88;;;16.65;;
24619;SDS011;12763;55.802;37.404;2022-12-29T18:10:23;46.05;;;15.77;;
24619;SDS011;12763;55.802;37.404;2022-12-29T18:12:52;46.55;;;17.30;;
24619;SDS011;12763;55.802;37.404;2022-12-29T18:15:23;60.97;;;17.88;;
24619;SDS011;12763;55.802;37.404;2022-12-29T18:17:53;57.83;;;17.63;;
24619;SDS011;12763;55.802;37.404;2022-12-29T18:20:40;56.08;;;17.83;;
24619;SDS011;12763;55.802;37.404;2022-12-29T18:23:40;55.10;;;16.67;;
24619;SDS011;12763;55.802;37.404;2022-12-29T18:31:18;57.30;;;16.30;;
24619;SDS011;12763;55.802;37.404;2022-12-29T18:33:46;50.97;;;17.42;;
24619;SDS011;12763;55.802;37.404;2022-12-29T18:36:13;50.50;;;18.02;;